KGLE

Gainesville Municipal Airport

Gainesville, Texas, USA
METAR KGLE 231615Z AUTO 01012KT 10SM -RA SCT018 BKN026 OVC050 03/02 A3025 RMK AO2 P0001 T00260023
Observed Flight Rules
Feb-23 @ 16:15 UTC (24 minutes ago) Marginal Visual Flight Rules
Wind Visibility Clouds Conditions
10° at 12 knots 10 miles
  • Scattered at 1,800' AGL
  • Broken at 2,600' AGL
  • Overcast at 5,000' AGL
  • Light Rain
Temperatures Readings Precipitation
Current 3°C / 37°F
Dewpoint 2°C / 36°F
Humidity 93%
Altimeter 30.25" Hg
Pressure 1024 hPa
Elevation 256
Current Rain 0.01
METAR KGLE 231615Z AUTO 01012KT 10SM -RA SCT018 BKN026 OVC050 03/02 A3025 RMK AO2 P0001 T00260023
Observed Flight Rules
Feb-23 @ 16:15 UTC
(24 minutes ago)
MVFR
Wind Visibility
10° at 12 knots 10 miles
Clouds
  • Scattered at 1,800' AGL
  • Broken at 2,600' AGL
  • Overcast at 5,000' AGL
Conditions
  • Light Rain
Temperature Dewpoint
3°C / 37°F 2°C / 36°F
Humidity Altimeter Pressure
93% 30.25" Hg 1024 hPa
Current Rain
0.01